Time;durP1;ratioP1;P1;durP2;ratioP2;P2;SDS_P1;SDS_P2;PMS_P1;PMS_P2;Temp;Humidity;BMP_temperature;BMP_pressure;BME280_temperature;BME280_humidity;BME280_pressure;Samples;Min_cycle;Max_cycle;Signal;HPM_P1;HPM_P2
2022/05/07 00:03:41;;;;;;;0.05;0.05;;;;;;;11.35;100.00;102209.09;10408737;28;20033;-62
2022/05/07 00:08:41;;;;;;;0.10;0.10;;;;;;;11.24;100.00;102209.16;10424755;28;20056;-62
2022/05/07 00:13:42;;;;;;;0.05;0.05;;;;;;;11.17;100.00;102216.81;10412395;28;20028;-62
2022/05/07 00:18:42;;;;;;;0.10;0.10;;;;;;;11.21;100.00;102223.59;10424167;28;20039;-62
2022/05/07 00:23:42;;;;;;;0.00;0.00;;;;;;;11.28;100.00;102216.75;10446697;28;20048;-62
2022/05/07 00:28:44;;;;;;;0.08;0.08;;;;;;;11.36;100.00;102212.59;10408096;28;20068;-61
2022/05/07 00:33:45;;;;;;;0.10;0.10;;;;;;;11.40;100.00;102220.19;10406862;28;20025;-63
2022/05/07 00:38:46;;;;;;;0.10;0.10;;;;;;;11.40;100.00;102216.69;10408148;28;20025;-62
2022/05/07 00:43:46;;;;;;;0.10;0.10;;;;;;;11.40;100.00;102211.34;10411240;28;20047;-62
2022/05/07 00:48:46;;;;;;;0.10;0.10;;;;;;;11.36;100.00;102218.78;10409542;28;20531;-59
2022/05/07 00:53:47;;;;;;;0.10;0.10;;;;;;;11.36;100.00;102209.94;10405869;28;20072;-61
2022/05/07 00:58:49;;;;;;;0.05;0.05;;;;;;;11.38;100.00;102207.97;10417788;28;20021;-62
2022/05/07 01:03:50;;;;;;;0.00;0.00;;;;;;;11.36;100.00;102205.44;10447522;28;20029;-61
2022/05/07 01:08:50;;;;;;;0.10;0.10;;;;;;;11.36;100.00;102204.59;10410837;28;20033;-61
2022/05/07 01:13:52;;;;;;;0.10;0.10;;;;;;;11.34;100.00;102212.72;10418014;28;20112;-60
2022/05/07 01:18:52;;;;;;;0.10;0.10;;;;;;;11.30;100.00;102212.13;10419004;28;20276;-62
2022/05/07 01:23:53;;;;;;;0.00;0.00;;;;;;;11.28;100.00;102207.91;10407203;28;20608;-62
2022/05/07 01:29:01;;;;;;;0.08;0.08;;;;;;;11.25;100.00;102210.81;10406923;28;20403;-61
2022/05/07 01:34:01;;;;;;;0.03;0.03;;;;;;;11.23;100.00;102208.31;10412197;28;20387;-62
2022/05/07 01:39:01;;;;;;;0.00;0.00;;;;;;;11.24;100.00;102201.16;10442522;28;20021;-62
2022/05/07 01:44:02;;;;;;;0.10;0.10;;;;;;;11.24;100.00;102198.47;10433298;28;20104;-61
2022/05/07 01:49:02;;;;;;;0.00;0.00;;;;;;;11.27;100.00;102198.22;10408497;28;20284;-61
2022/05/07 01:54:02;;;;;;;0.10;0.10;;;;;;;11.31;100.00;102194.28;10408941;28;20384;-62
2022/05/07 01:59:03;;;;;;;0.00;0.00;;;;;;;11.37;100.00;102198.25;10412253;28;20021;-63
2022/05/07 02:04:03;;;;;;;0.10;0.10;;;;;;;11.40;100.00;102200.66;10429863;28;20314;-61
2022/05/07 02:09:03;;;;;;;0.00;0.00;;;;;;;11.43;100.00;102190.59;10454469;28;20024;-61
2022/05/07 02:14:04;;;;;;;0.00;0.00;;;;;;;11.45;100.00;102188.63;10441473;28;20347;-62
2022/05/07 02:19:04;;;;;;;0.10;0.10;;;;;;;11.46;100.00;102186.81;10415314;28;20425;-61
2022/05/07 02:24:05;;;;;;;0.10;0.10;;;;;;;11.41;100.00;102194.38;10412017;28;20465;-62
2022/05/07 02:29:05;;;;;;;0.05;0.05;;;;;;;11.30;100.00;102196.13;10412602;28;20642;-62
2022/05/07 02:34:05;;;;;;;0.10;0.10;;;;;;;11.16;100.00;102199.13;10411773;28;20439;-62
2022/05/07 02:39:05;;;;;;;0.10;0.10;;;;;;;11.06;100.00;102199.06;10412783;28;20079;-61
2022/05/07 02:44:06;;;;;;;0.00;0.00;;;;;;;10.98;100.00;102190.00;10418581;28;20052;-62
2022/05/07 02:49:10;;;;;;;0.00;0.00;;;;;;;10.82;100.00;102187.75;10416869;28;20025;-63
2022/05/07 02:54:10;;;;;;;0.10;0.10;;;;;;;10.69;100.00;102190.59;10413084;28;20361;-59
2022/05/07 02:59:10;;;;;;;0.00;0.00;;;;;;;10.57;100.00;102187.13;10437335;28;20016;-62
2022/05/07 03:04:10;;;;;;;0.00;0.00;;;;;;;10.46;100.00;102192.47;10451548;28;20025;-61
2022/05/07 03:09:11;;;;;;;0.00;0.00;;;;;;;10.36;100.00;102189.72;10452580;28;20025;-62
2022/05/07 03:14:12;;;;;;;0.10;0.10;;;;;;;10.26;100.00;102186.06;10435787;28;20271;-62
2022/05/07 03:19:13;;;;;;;0.10;0.10;;;;;;;10.18;100.00;102188.50;10435923;28;20036;-61
2022/05/07 03:24:13;;;;;;;0.10;0.10;;;;;;;10.02;100.00;102180.91;10450678;28;20021;-62
2022/05/07 03:29:13;;;;;;;0.00;0.00;;;;;;;9.90;100.00;102185.41;10431891;28;20124;-61
2022/05/07 03:34:14;;;;;;;0.10;0.10;;;;;;;9.87;100.00;102190.13;10409678;28;20071;-60
2022/05/07 03:39:14;;;;;;;0.10;0.10;;;;;;;9.83;100.00;102175.34;10410182;28;20020;-62
2022/05/07 03:44:14;;;;;;;0.10;0.10;;;;;;;9.82;100.00;102179.81;10417251;28;20028;-62
2022/05/07 03:49:15;;;;;;;0.10;0.10;;;;;;;9.89;100.00;102170.41;10410400;28;20683;-61
2022/05/07 03:54:22;;;;;;;0.00;0.00;;;;;;;9.94;100.00;102184.16;10408439;28;20381;-62
2022/05/07 03:59:22;;;;;;;0.00;0.00;;;;;;;9.83;100.00;102178.88;10403390;28;20026;-62
2022/05/07 04:04:22;;;;;;;0.10;0.10;;;;;;;9.73;100.00;102183.22;10414097;28;20066;-62
2022/05/07 04:09:22;;;;;;;0.00;0.00;;;;;;;9.84;100.00;102183.22;10408832;28;20120;-62
2022/05/07 04:14:23;;;;;;;0.10;0.10;;;;;;;10.28;100.00;102183.34;10425914;28;20104;-62
2022/05/07 04:19:23;;;;;;;0.10;0.10;;;;;;;11.02;100.00;102180.75;10414029;28;20025;-61
2022/05/07 04:24:23;;;;;;;0.10;0.10;;;;;;;11.40;100.00;102184.66;10407250;28;20036;-62
2022/05/07 04:29:24;;;;;;;0.10;0.10;;;;;;;11.25;100.00;102187.66;10405505;28;20033;-61
2022/05/07 04:34:26;;;;;;;0.00;0.00;;;;;;;11.12;100.00;102186.19;10407350;28;20024;-62
2022/05/07 04:39:28;;;;;;;0.00;0.00;;;;;;;11.18;100.00;102186.50;10409366;28;20021;-62
2022/05/07 04:44:29;;;;;;;0.10;0.10;;;;;;;11.27;100.00;102192.88;10427584;28;20059;-62
2022/05/07 04:49:29;;;;;;;0.10;0.10;;;;;;;11.35;100.00;102194.91;10450022;28;20036;-63
2022/05/07 04:54:29;;;;;;;0.00;0.00;;;;;;;11.45;100.00;102193.13;10449738;28;20103;-63
2022/05/07 04:59:29;;;;;;;0.10;0.10;;;;;;;11.61;100.00;102203.34;10450043;28;20028;-63
2022/05/07 05:04:30;;;;;;;0.10;0.10;;;;;;;11.76;100.00;102213.53;10449581;28;20032;-62
2022/05/07 05:09:30;;;;;;;0.10;0.10;;;;;;;11.94;100.00;102216.44;10450120;28;20029;-62
2022/05/07 05:19:49;;;;;;;0.10;0.10;;;;;;;12.46;100.00;102219.00;10454016;28;20037;-63
2022/05/07 05:24:49;;;;;;;0.15;0.15;;;;;;;12.67;100.00;102222.41;10439257;28;20033;-63
2022/05/07 05:29:50;;;;;;;0.10;0.10;;;;;;;12.86;100.00;102226.94;10453597;28;20064;-63
2022/05/07 05:34:53;;;;;;;0.00;0.00;;;;;;;13.11;100.00;102228.19;10456703;28;20025;-62
2022/05/07 05:39:53;;;;;;;0.10;0.10;;;;;;;13.45;100.00;102232.28;10457254;28;20025;-63
2022/05/07 05:44:54;;;;;;;0.10;0.10;;;;;;;13.76;100.00;102236.44;10456726;28;20029;-63
2022/05/07 05:49:54;;;;;;;0.10;0.10;;;;;;;14.25;100.00;102241.59;10447352;28;20029;-61
2022/05/07 05:54:54;;;;;;;0.20;0.20;;;;;;;14.70;100.00;102233.59;10453692;28;20487;-63
2022/05/07 05:59:54;;;;;;;0.10;0.10;;;;;;;15.12;100.00;102232.97;10454679;28;20017;-63
2022/05/07 06:04:55;;;;;;;0.00;0.00;;;;;;;15.33;100.00;102246.06;10455679;28;20020;-62
2022/05/07 06:09:56;;;;;;;0.10;0.10;;;;;;;15.20;100.00;102251.00;10455662;28;20538;-64
2022/05/07 06:14:56;;;;;;;0.10;0.10;;;;;;;15.03;100.00;102255.38;10455539;28;20079;-62
2022/05/07 06:19:57;;;;;;;0.10;0.10;;;;;;;14.93;100.00;102257.28;10432727;28;20495;-62
2022/05/07 06:30:16;;;;;;;0.10;0.10;;;;;;;14.88;100.00;102279.19;10455864;28;20037;-61
2022/05/07 06:35:16;;;;;;;0.10;0.10;;;;;;;14.85;100.00;102276.81;10454320;28;20037;-60
2022/05/07 06:40:17;;;;;;;0.10;0.10;;;;;;;15.09;100.00;102276.22;10454317;28;20399;-63
2022/05/07 06:45:17;;;;;;;0.10;0.10;;;;;;;15.67;100.00;102287.44;10454625;28;20025;-62
2022/05/07 06:50:17;;;;;;;0.10;0.10;;;;;;;16.00;100.00;102285.84;10452174;28;20109;-61
2022/05/07 06:55:19;;;;;;;0.10;0.10;;;;;;;16.18;100.00;102291.97;10453549;28;20452;-62
2022/05/07 07:00:19;;;;;;;0.10;0.10;;;;;;;16.27;100.00;102287.47;10454060;28;20040;-62
2022/05/07 07:05:20;;;;;;;0.10;0.10;;;;;;;16.22;100.00;102293.34;10452922;28;20035;-62
2022/05/07 07:10:21;;;;;;;0.10;0.10;;;;;;;16.25;100.00;102294.84;10452778;28;20029;-62
2022/05/07 07:15:22;;;;;;;0.10;0.10;;;;;;;16.24;100.00;102298.56;10453189;28;20043;-61
2022/05/07 07:20:22;;;;;;;0.00;0.00;;;;;;;16.14;100.00;102298.66;10451461;28;20029;-62
2022/05/07 07:25:22;;;;;;;0.10;0.10;;;;;;;16.14;99.42;102306.72;10451904;28;20025;-62
2022/05/07 07:30:23;;;;;;;0.10;0.10;;;;;;;16.14;100.00;102298.66;10452197;28;20115;-62
2022/05/07 07:35:24;;;;;;;0.10;0.10;;;;;;;16.18;100.00;102294.66;10451936;28;20021;-62
2022/05/07 07:40:24;;;;;;;0.10;0.10;;;;;;;16.23;98.19;102297.72;10452197;28;20106;-63
2022/05/07 07:50:46;;;;;;;0.10;0.10;;;;;;;16.39;99.33;102304.19;10449067;28;20033;-64
2022/05/07 07:55:46;;;;;;;0.10;0.10;;;;;;;16.45;100.00;102316.97;10451019;28;20499;-64
2022/05/07 08:00:46;;;;;;;0.10;0.10;;;;;;;16.45;99.03;102320.50;10451714;28;20017;-64
2022/05/07 08:05:52;;;;;;;0.10;0.10;;;;;;;16.55;100.00;102324.91;10450482;28;20051;-63
2022/05/07 08:16:13;;;;;;;0.10;0.10;;;;;;;16.51;97.87;102316.31;10450349;28;20253;-63
2022/05/07 08:21:14;;;;;;;0.00;0.00;;;;;;;16.40;100.00;102317.44;10448939;28;20025;-63
2022/05/07 08:26:15;;;;;;;0.10;0.10;;;;;;;16.48;98.85;102311.28;10435232;28;20067;-63
2022/05/07 08:31:15;;;;;;;0.10;0.10;;;;;;;16.58;98.12;102320.06;10450482;28;20041;-62
2022/05/07 08:36:16;;;;;;;0.10;0.10;;;;;;;16.71;98.42;102317.75;10450075;28;20401;-63
2022/05/07 08:41:18;;;;;;;0.10;0.10;;;;;;;16.90;97.41;102323.88;10450894;28;20033;-62
2022/05/07 08:46:19;;;;;;;0.10;0.10;;;;;;;17.11;96.51;102323.44;10449819;28;20544;-63
2022/05/07 08:51:22;;;;;;;0.10;0.10;;;;;;;17.39;96.66;102323.94;10450684;28;20211;-62
2022/05/07 08:56:24;;;;;;;0.10;0.10;;;;;;;17.55;92.02;102326.66;10434486;28;20021;-63
2022/05/07 09:01:24;;;;;;;0.10;0.10;;;;;;;17.71;93.40;102338.44;10450140;28;20416;-63
2022/05/07 09:06:26;;;;;;;0.10;0.10;;;;;;;17.88;93.23;102342.81;10457819;28;20027;-63
2022/05/07 09:11:38;;;;;;;0.00;0.00;;;;;;;18.07;90.16;102337.06;10458458;28;20029;-63
2022/05/07 09:16:46;;;;;;;0.00;0.00;;;;;;;18.15;89.31;102338.03;10449856;28;20113;-63
2022/05/07 09:21:47;;;;;;;0.10;0.10;;;;;;;18.38;87.58;102340.84;10440169;28;20481;-64
2022/05/07 09:26:47;;;;;;;0.00;0.00;;;;;;;18.63;84.85;102341.59;10445440;28;20377;-64
2022/05/07 09:31:50;;;;;;;0.10;0.10;;;;;;;18.88;87.64;102337.81;10457026;28;20390;-63
2022/05/07 09:36:52;;;;;;;0.10;0.10;;;;;;;19.58;84.41;102338.66;10456952;28;20488;-64
2022/05/07 09:41:53;;;;;;;0.10;0.10;;;;;;;20.30;81.37;102336.28;10439386;28;20036;-64
2022/05/07 09:46:58;;;;;;;0.05;0.05;;;;;;;21.14;77.93;102335.00;10456045;28;20024;-64
2022/05/07 09:51:59;;;;;;;0.08;0.08;;;;;;;21.16;73.12;102325.66;10457018;28;20174;-62
2022/05/07 10:02:48;;;;;;;0.10;0.10;;;;;;;21.38;73.61;102336.50;10456654;28;20464;-63
2022/05/07 10:08:13;;;;;;;0.00;0.00;;;;;;;20.33;72.48;102333.19;10455688;28;20025;-63
2022/05/07 10:13:18;;;;;;;0.00;0.00;;;;;;;19.95;76.91;102339.69;10463667;28;20029;-63
2022/05/07 10:18:19;;;;;;;0.00;0.00;;;;;;;19.78;78.19;102342.56;10455383;28;20492;-63
2022/05/07 10:23:29;;;;;;;0.10;0.10;;;;;;;19.87;79.88;102352.28;10456091;28;20056;-63
2022/05/07 10:28:41;;;;;;;0.00;0.00;;;;;;;19.23;82.49;102354.47;10454841;28;20461;-63
2022/05/07 10:33:41;;;;;;;0.00;0.00;;;;;;;18.81;85.01;102350.31;10449723;28;20029;-63
2022/05/07 10:38:46;;;;;;;0.10;0.10;;;;;;;18.51;86.78;102350.06;10444948;28;20025;-63
2022/05/07 10:43:47;;;;;;;0.00;0.00;;;;;;;18.10;88.61;102355.59;10453161;28;20029;-62
2022/05/07 10:48:48;;;;;;;0.00;0.00;;;;;;;17.85;90.75;102351.25;10455207;28;20017;-62
2022/05/07 10:53:49;;;;;;;0.00;0.00;;;;;;;17.59;90.48;102344.16;10453906;28;20082;-63
2022/05/07 10:58:55;;;;;;;0.00;0.00;;;;;;;17.48;92.29;102341.78;10454115;28;20070;-62
2022/05/07 11:04:04;;;;;;;0.10;0.10;;;;;;;17.41;90.06;102340.78;10451586;28;20017;-62
2022/05/07 11:09:05;;;;;;;0.10;0.10;;;;;;;17.16;89.79;102351.53;10444660;28;20118;-64
2022/05/07 11:14:05;;;;;;;0.00;0.00;;;;;;;16.96;92.99;102353.69;10453127;28;20021;-63
2022/05/07 11:19:05;;;;;;;0.10;0.10;;;;;;;17.18;93.41;102354.88;10453147;28;20021;-64
2022/05/07 11:24:07;;;;;;;0.10;0.10;;;;;;;17.07;92.10;102359.75;10453235;28;20029;-63
2022/05/07 11:29:07;;;;;;;0.00;0.00;;;;;;;16.91;92.31;102353.31;10452956;28;20033;-63
2022/05/07 11:34:10;;;;;;;0.10;0.10;;;;;;;17.01;92.96;102355.88;10452390;28;20028;-64
2022/05/07 11:39:15;;;;;;;0.10;0.10;;;;;;;17.13;91.13;102351.00;10483695;28;20020;-64
2022/05/07 11:49:59;;;;;;;0.10;0.10;;;;;;;17.69;91.99;102344.00;10493615;28;20025;-64
2022/05/07 11:55:05;;;;;;;0.10;0.10;;;;;;;18.03;88.04;102341.09;10491620;28;20028;-64
2022/05/07 12:00:20;;;;;;;0.00;0.00;;;;;;;18.35;85.89;102344.72;10493449;28;20067;-64
2022/05/07 12:05:22;;;;;;;0.10;0.10;;;;;;;18.49;87.05;102340.47;10489638;28;20024;-64
2022/05/07 12:10:22;;;;;;;0.10;0.10;;;;;;;18.82;84.28;102332.25;10478310;28;20086;-64
2022/05/07 12:17:52;;;;;;;0.00;0.00;;;;;;;19.48;83.13;102325.38;10491022;28;20077;-65
2022/05/07 12:20:43;;;;;;;0.00;0.00;;;;;;;19.48;80.83;102338.06;10492792;28;20305;-65
2022/05/07 12:31:03;;;;;;;0.00;0.00;;;;;;;17.83;85.80;102339.78;10492447;28;20032;-63
2022/05/07 12:36:03;;;;;;;0.10;0.10;;;;;;;17.53;89.28;102336.75;10482304;28;20028;-63
2022/05/07 12:41:03;;;;;;;0.10;0.10;;;;;;;17.41;91.79;102338.09;10451378;28;20036;-64
2022/05/07 12:46:04;;;;;;;0.00;0.00;;;;;;;17.24;92.33;102341.78;10450206;28;20024;-63
2022/05/07 12:51:04;;;;;;;0.00;0.00;;;;;;;16.89;95.03;102354.50;10450251;28;20033;-63
2022/05/07 12:56:05;;;;;;;0.10;0.10;;;;;;;16.82;95.47;102353.47;10450232;28;20098;-64
2022/05/07 13:01:05;;;;;;;0.00;0.00;;;;;;;16.82;95.33;102356.16;10451138;28;20021;-63
2022/05/07 13:06:05;;;;;;;0.10;0.10;;;;;;;16.61;98.00;102345.78;10449171;28;20021;-63
2022/05/07 13:11:06;;;;;;;0.10;0.10;;;;;;;16.66;97.11;102348.81;10449588;28;20028;-63
2022/05/07 13:16:07;;;;;;;0.10;0.10;;;;;;;16.94;98.42;102355.69;10448216;28;20032;-63
2022/05/07 13:21:07;;;;;;;0.00;0.00;;;;;;;17.10;97.41;102354.03;10450128;28;20107;-62
2022/05/07 13:26:08;;;;;;;0.10;0.10;;;;;;;16.91;97.30;102353.31;10449039;28;20455;-62
2022/05/07 13:31:08;;;;;;;0.10;0.10;;;;;;;16.72;98.43;102349.00;10449806;28;20033;-62
2022/05/07 13:36:08;;;;;;;0.20;0.20;;;;;;;16.66;97.78;102340.75;10448021;28;20082;-62
2022/05/07 13:41:10;;;;;;;0.10;0.10;;;;;;;16.51;98.37;102344.06;10449680;28;20364;-62
2022/05/07 13:46:10;;;;;;;0.10;0.10;;;;;;;16.41;99.53;102348.72;10449425;28;20017;-63
2022/05/07 13:51:11;;;;;;;0.10;0.10;;;;;;;16.26;100.00;102350.31;10453665;28;20075;-63
2022/05/07 13:56:11;;;;;;;0.03;0.03;;;;;;;16.14;100.00;102341.66;10456303;28;20259;-63
2022/05/07 14:01:12;;;;;;;0.10;0.10;;;;;;;15.94;100.00;102338.38;10457575;28;20107;-63
2022/05/07 14:06:16;;;;;;;0.10;0.10;;;;;;;15.96;100.00;102341.72;10455505;28;20033;-62
2022/05/07 14:11:16;;;;;;;0.10;0.10;;;;;;;15.93;100.00;102339.34;10456798;28;20021;-63
2022/05/07 14:16:16;;;;;;;0.00;0.00;;;;;;;15.83;100.00;102347.53;10455093;28;20396;-63
2022/05/07 14:21:17;;;;;;;0.10;0.10;;;;;;;15.70;100.00;102346.25;10456098;28;20570;-63
2022/05/07 14:26:17;;;;;;;0.10;0.10;;;;;;;15.62;100.00;102341.63;10454176;28;20388;-63
2022/05/07 14:31:17;;;;;;;0.10;0.10;;;;;;;15.66;100.00;102347.53;10455445;28;20029;-63
2022/05/07 14:36:18;;;;;;;0.00;0.00;;;;;;;15.68;100.00;102348.22;10453455;28;20021;-63
2022/05/07 14:41:18;;;;;;;0.10;0.10;;;;;;;15.51;100.00;102345.41;10454822;28;20017;-63
2022/05/07 14:46:21;;;;;;;0.10;0.10;;;;;;;15.48;100.00;102345.72;10454369;28;20031;-62
2022/05/07 14:51:22;;;;;;;0.00;0.00;;;;;;;15.53;100.00;102343.41;10454067;28;20059;-63
2022/05/07 14:56:22;;;;;;;0.10;0.10;;;;;;;15.63;99.72;102349.53;10453787;28;20047;-64
2022/05/07 15:01:23;;;;;;;0.10;0.10;;;;;;;15.61;98.97;102350.66;10453584;28;20021;-64
2022/05/07 15:06:23;;;;;;;0.10;0.10;;;;;;;15.49;100.00;102344.69;10451233;28;20064;-64
2022/05/07 15:11:23;;;;;;;0.00;0.00;;;;;;;15.34;100.00;102343.56;10454143;28;20052;-64
2022/05/07 15:16:26;;;;;;;0.10;0.10;;;;;;;15.28;100.00;102342.34;10452893;28;20056;-64
2022/05/07 15:21:26;;;;;;;0.10;0.10;;;;;;;15.15;100.00;102347.22;10453249;28;20024;-64
2022/05/07 15:26:27;;;;;;;0.10;0.10;;;;;;;15.02;100.00;102352.13;10452532;28;20544;-64
2022/05/07 15:31:27;;;;;;;0.10;0.10;;;;;;;14.98;100.00;102348.91;10452511;28;20029;-64
2022/05/07 15:41:46;;;;;;;0.10;0.10;;;;;;;15.05;100.00;102349.16;10452556;28;20108;-64
2022/05/07 15:46:46;;;;;;;0.00;0.00;;;;;;;15.14;100.00;102342.84;10451836;28;20021;-64
2022/05/07 15:51:47;;;;;;;0.10;0.10;;;;;;;15.34;100.00;102356.97;10452552;28;20032;-64
2022/05/07 15:56:47;;;;;;;0.10;0.10;;;;;;;15.58;100.00;102357.19;10451089;28;20426;-64
2022/05/07 16:01:47;;;;;;;0.10;0.10;;;;;;;15.81;100.00;102356.75;10451749;28;20013;-61
2022/05/07 16:06:48;;;;;;;0.10;0.10;;;;;;;16.27;100.00;102343.94;10449822;28;20024;-62
2022/05/07 16:11:48;;;;;;;0.08;0.08;;;;;;;16.51;100.00;102340.53;10450985;28;20032;-62
2022/05/07 16:16:49;;;;;;;0.00;0.00;;;;;;;16.46;98.84;102332.09;10450555;28;20032;-62
2022/05/07 16:21:49;;;;;;;0.10;0.10;;;;;;;16.34;93.85;102336.06;10451932;28;20357;-63
2022/05/07 16:26:49;;;;;;;0.10;0.10;;;;;;;16.12;92.76;102335.63;10450032;28;20029;-63
2022/05/07 16:31:50;;;;;;;0.10;0.10;;;;;;;15.92;88.80;102343.06;10450576;28;20032;-63
2022/05/07 16:36:51;;;;;;;0.00;0.00;;;;;;;15.65;87.40;102335.09;10455677;28;20075;-62
2022/05/07 16:41:51;;;;;;;0.10;0.10;;;;;;;15.47;90.32;102343.16;10491857;28;20048;-62
2022/05/07 16:46:51;;;;;;;0.00;0.00;;;;;;;15.37;92.13;102345.94;10491371;28;20490;-62
2022/05/07 16:51:52;;;;;;;0.10;0.10;;;;;;;15.18;92.62;102349.59;10491823;28;20033;-62
2022/05/07 16:56:53;;;;;;;0.10;0.10;;;;;;;14.97;94.74;102346.38;10491012;28;20394;-62
2022/05/07 17:01:54;;;;;;;0.00;0.00;;;;;;;14.80;96.41;102346.16;10491936;28;20533;-62
2022/05/07 17:06:54;;;;;;;0.15;0.15;;;;;;;14.78;96.91;102350.03;10473185;28;20025;-63
2022/05/07 17:11:54;;;;;;;0.10;0.10;;;;;;;14.68;97.72;102350.91;10450023;28;20033;-63
2022/05/07 17:16:55;;;;;;;0.10;0.10;;;;;;;14.44;99.04;102348.72;10447948;28;20079;-63
2022/05/07 17:21:55;;;;;;;0.10;0.10;;;;;;;14.31;99.35;102350.91;10449379;28;20071;-63
2022/05/07 17:26:55;;;;;;;0.10;0.10;;;;;;;14.14;100.00;102354.34;10457313;28;20017;-63
2022/05/07 17:31:56;;;;;;;0.10;0.10;;;;;;;14.01;100.00;102360.00;10457759;28;20029;-63
2022/05/07 17:36:57;;;;;;;0.10;0.10;;;;;;;13.98;100.00;102361.13;10456430;28;20063;-62
2022/05/07 17:41:57;;;;;;;0.10;0.10;;;;;;;14.04;100.00;102376.63;10457399;28;20263;-62
2022/05/07 17:46:58;;;;;;;0.10;0.10;;;;;;;14.08;100.00;102373.66;10456325;28;20027;-63
2022/05/07 17:51:59;;;;;;;0.10;0.10;;;;;;;14.01;100.00;102376.91;10457006;28;20036;-63
2022/05/07 17:57:00;;;;;;;0.10;0.10;;;;;;;13.91;100.00;102378.78;10455776;28;20112;-63
2022/05/07 18:02:00;;;;;;;0.10;0.10;;;;;;;13.75;100.00;102381.19;10456791;28;20100;-63
2022/05/07 18:07:01;;;;;;;0.10;0.10;;;;;;;13.56;100.00;102376.69;10454265;28;20040;-63
2022/05/07 18:12:01;;;;;;;0.10;0.10;;;;;;;13.39;100.00;102382.75;10456547;28;20031;-63
2022/05/07 18:17:01;;;;;;;0.10;0.10;;;;;;;13.20;100.00;102391.53;10455627;28;20029;-63
2022/05/07 18:22:03;;;;;;;0.10;0.10;;;;;;;13.05;100.00;102388.41;10455463;28;20112;-63
2022/05/07 18:27:04;;;;;;;0.10;0.10;;;;;;;12.88;100.00;102393.44;10454524;28;20100;-63
2022/05/07 18:32:05;;;;;;;0.10;0.10;;;;;;;12.69;100.00;102382.69;10455175;28;20120;-62
2022/05/07 18:47:43;;;;;;;0.10;0.10;;;;;;;12.21;100.00;102410.84;10454951;28;20028;-62
2022/05/07 18:52:45;;;;;;;0.10;0.10;;;;;;;12.07;100.00;102413.88;10444923;28;20033;-63
2022/05/07 19:03:04;;;;;;;0.10;0.10;;;;;;;11.70;100.00;102429.44;10453942;28;20021;-61
2022/05/07 19:08:05;;;;;;;0.10;0.10;;;;;;;11.52;100.00;102435.31;10452271;28;20029;-62
2022/05/07 19:13:06;;;;;;;0.00;0.00;;;;;;;11.38;100.00;102438.25;10453870;28;20434;-62
2022/05/07 19:18:06;;;;;;;0.10;0.10;;;;;;;11.24;100.00;102450.03;10452561;28;20396;-62
2022/05/07 19:23:07;;;;;;;0.10;0.10;;;;;;;11.07;100.00;102453.22;10453238;28;20087;-61
2022/05/07 19:28:08;;;;;;;0.10;0.10;;;;;;;10.87;100.00;102466.31;10452234;28;20039;-62
2022/05/07 19:33:09;;;;;;;0.10;0.10;;;;;;;10.78;100.00;102458.19;10453114;28;20021;-60
2022/05/07 19:38:11;;;;;;;0.08;0.08;;;;;;;10.60;100.00;102471.16;10450747;28;20087;-62
2022/05/07 19:43:11;;;;;;;0.00;0.00;;;;;;;10.44;100.00;102468.78;10443154;28;20028;-61
2022/05/07 19:48:11;;;;;;;0.10;0.10;;;;;;;10.32;100.00;102481.25;10421801;28;20017;-61
2022/05/07 19:53:12;;;;;;;0.00;0.00;;;;;;;10.18;100.00;102479.63;10409068;28;20037;-59
2022/05/07 19:58:13;;;;;;;0.00;0.00;;;;;;;9.98;100.00;102483.78;10414454;28;20392;-60
2022/05/07 20:03:14;;;;;;;0.10;0.10;;;;;;;9.85;100.00;102498.09;10408900;28;20013;-61
2022/05/07 20:08:15;;;;;;;0.00;0.00;;;;;;;9.72;100.00;102503.50;10416311;28;20476;-61
2022/05/07 20:13:15;;;;;;;0.10;0.10;;;;;;;9.60;100.00;102507.03;10409181;28;20035;-61
2022/05/07 20:18:15;;;;;;;0.00;0.00;;;;;;;9.49;100.00;102518.47;10409647;28;20030;-61
2022/05/07 20:23:16;;;;;;;0.10;0.10;;;;;;;9.42;100.00;102523.34;10409727;28;20021;-61
2022/05/07 20:28:16;;;;;;;0.10;0.10;;;;;;;9.30;100.00;102530.41;10408253;28;20025;-61
2022/05/07 20:33:19;;;;;;;0.00;0.00;;;;;;;9.22;100.00;102530.13;10408589;28;20017;-61
2022/05/07 20:38:19;;;;;;;0.10;0.10;;;;;;;9.13;100.00;102532.56;10424068;28;20276;-61
2022/05/07 20:48:38;;;;;;;0.10;0.10;;;;;;;8.97;100.00;102538.97;10446299;28;20025;-61
2022/05/07 20:53:39;;;;;;;0.00;0.00;;;;;;;8.86;100.00;102538.84;10446869;28;20473;-59
2022/05/07 20:58:40;;;;;;;0.00;0.00;;;;;;;8.79;100.00;102546.41;10446646;28;20862;-61
2022/05/07 21:03:40;;;;;;;0.00;0.00;;;;;;;8.69;100.00;102552.44;10457149;28;20495;-61
2022/05/07 21:08:41;;;;;;;0.00;0.00;;;;;;;8.60;100.00;102546.78;10430814;28;20021;-59
2022/05/07 21:13:42;;;;;;;0.10;0.10;;;;;;;8.50;100.00;102548.38;10415227;28;20096;-61
2022/05/07 21:18:43;;;;;;;0.00;0.00;;;;;;;8.43;100.00;102547.09;10414558;28;20070;-61
2022/05/07 21:23:44;;;;;;;0.00;0.00;;;;;;;8.36;100.00;102548.44;10414725;28;20820;-60
2022/05/07 21:28:44;;;;;;;0.00;0.00;;;;;;;8.24;100.00;102549.25;10417422;28;20087;-59
2022/05/07 21:33:45;;;;;;;0.10;0.10;;;;;;;8.19;100.00;102556.66;10449855;28;21678;-61
2022/05/07 21:38:45;;;;;;;0.00;0.00;;;;;;;8.18;100.00;102570.91;10432916;28;20639;-61
2022/05/07 21:43:46;;;;;;;0.00;0.00;;;;;;;8.08;100.00;102570.63;10413613;28;20091;-60
2022/05/07 21:48:47;;;;;;;0.10;0.10;;;;;;;8.01;100.00;102564.88;10414808;28;20025;-60
2022/05/07 21:53:47;;;;;;;0.00;0.00;;;;;;;7.87;100.00;102579.03;10413284;28;20018;-61
2022/05/07 21:58:47;;;;;;;0.00;0.00;;;;;;;7.76;100.00;102583.31;10428312;28;20295;-61
2022/05/07 22:03:48;;;;;;;0.00;0.00;;;;;;;7.67;100.00;102582.09;10413001;28;20033;-59
2022/05/07 22:08:48;;;;;;;0.00;0.00;;;;;;;7.62;100.00;102587.72;10420379;28;20021;-60
2022/05/07 22:13:48;;;;;;;0.00;0.00;;;;;;;7.59;100.00;102595.00;10412284;28;20040;-61
2022/05/07 22:18:49;;;;;;;0.00;0.00;;;;;;;7.53;100.00;102598.88;10413294;28;20469;-61
2022/05/07 22:23:50;;;;;;;0.00;0.00;;;;;;;7.47;100.00;102599.28;10412158;28;20088;-58
2022/05/07 22:28:50;;;;;;;0.00;0.00;;;;;;;7.41;100.00;102608.44;10412415;28;20538;-61
2022/05/07 22:33:50;;;;;;;0.00;0.00;;;;;;;7.35;100.00;102608.00;10412032;28;20018;-61
2022/05/07 22:38:51;;;;;;;0.00;0.00;;;;;;;7.25;100.00;102605.91;10432220;28;20487;-60
2022/05/07 22:43:51;;;;;;;0.00;0.00;;;;;;;7.18;100.00;102611.66;10452507;28;20028;-61
2022/05/07 22:48:51;;;;;;;0.00;0.00;;;;;;;7.11;100.00;102616.50;10453118;28;20064;-60
2022/05/07 22:53:54;;;;;;;0.00;0.00;;;;;;;7.04;100.00;102623.13;10451892;28;20032;-60
2022/05/07 22:58:56;;;;;;;0.00;0.00;;;;;;;6.91;100.00;102633.59;10452691;28;20495;-59
2022/05/07 23:03:56;;;;;;;0.00;0.00;;;;;;;6.76;100.00;102632.69;10451244;28;20464;-59
2022/05/07 23:08:56;;;;;;;0.10;0.10;;;;;;;6.73;100.00;102630.22;10427671;28;20025;-60
2022/05/07 23:13:57;;;;;;;0.10;0.10;;;;;;;6.67;100.00;102635.88;10409215;28;20022;-59
2022/05/07 23:18:57;;;;;;;0.00;0.00;;;;;;;6.55;100.00;102639.25;10416420;28;20026;-60
2022/05/07 23:23:59;;;;;;;0.00;0.00;;;;;;;6.47;100.00;102646.78;10449614;28;20387;-60
2022/05/07 23:29:00;;;;;;;0.00;0.00;;;;;;;6.42;100.00;102648.81;10451644;28;20123;-61
2022/05/07 23:34:00;;;;;;;0.00;0.00;;;;;;;6.35;100.00;102648.34;10450204;28;20039;-61
2022/05/07 23:39:00;;;;;;;0.00;0.00;;;;;;;6.25;100.00;102653.28;10425681;28;20036;-59
2022/05/07 23:44:01;;;;;;;0.00;0.00;;;;;;;6.24;100.00;102661.31;10409058;28;20017;-60
2022/05/07 23:49:01;;;;;;;0.00;0.00;;;;;;;6.23;100.00;102664.91;10409705;28;20017;-60
2022/05/07 23:54:02;;;;;;;0.00;0.00;;;;;;;6.19;100.00;102658.06;10409019;28;20022;-60
2022/05/07 23:59:02;;;;;;;0.00;0.00;;;;;;;6.09;100.00;102655.09;10411568;28;20021;-60
